Time;durP1;ratioP1;P1;durP2;ratioP2;P2;SDS_P1;SDS_P2;PMS_P1;PMS_P2;Temp;Humidity;BMP_temperature;BMP_pressure;BME280_temperature;BME280_humidity;BME280_pressure;Samples;Min_cycle;Max_cycle;Signal;HPM_P1;HPM_P2
2023/01/24 00:00:59;;;;;;;2.00;1.90;;;4.50;99.90;;;;;;5112562;28;20165;-65
2023/01/24 00:03:25;;;;;;;2.20;2.10;;;4.60;99.90;;;;;;5112734;28;20174;-65
2023/01/24 00:05:51;;;;;;;2.80;2.60;;;4.60;99.90;;;;;;5113123;28;20181;-64
2023/01/24 00:08:19;;;;;;;3.00;2.80;;;4.70;99.90;;;;;;5110269;28;20272;-63
2023/01/24 00:10:46;;;;;;;2.93;2.67;;;4.70;99.90;;;;;;5112185;28;20181;-66
2023/01/24 00:13:13;;;;;;;2.47;2.37;;;4.70;99.90;;;;;;5112008;28;20179;-67
2023/01/24 00:15:39;;;;;;;3.03;2.83;;;4.70;99.90;;;;;;5111955;28;20178;-65
2023/01/24 00:18:05;;;;;;;2.53;2.40;;;4.70;99.90;;;;;;5111999;28;20239;-65
2023/01/24 00:20:31;;;;;;;1.87;1.80;;;4.80;99.90;;;;;;5111632;28;20217;-65
2023/01/24 00:22:57;;;;;;;2.20;2.10;;;4.70;99.90;;;;;;5093668;28;20181;-67
2023/01/24 00:25:22;;;;;;;1.93;1.83;;;4.70;99.90;;;;;;5114944;28;20242;-65
2023/01/24 00:27:48;;;;;;;1.87;1.80;;;4.70;99.90;;;;;;5096904;28;20222;-67
2023/01/24 00:30:15;;;;;;;2.20;2.10;;;4.70;99.90;;;;;;5112121;28;20170;-64
2023/01/24 00:32:40;;;;;;;2.10;1.90;;;4.60;99.90;;;;;;5111672;28;20253;-66
2023/01/24 00:35:07;;;;;;;2.20;2.10;;;4.60;99.90;;;;;;5111999;28;20267;-65
2023/01/24 00:37:33;;;;;;;2.20;2.10;;;4.60;99.90;;;;;;5112184;28;20632;-65
2023/01/24 00:39:59;;;;;;;2.07;1.97;;;4.70;99.90;;;;;;5111962;28;20540;-64
2023/01/24 00:42:24;;;;;;;2.20;2.00;;;4.70;99.90;;;;;;5111333;28;20178;-65
2023/01/24 00:44:50;;;;;;;1.70;1.60;;;4.70;99.90;;;;;;5093322;28;20210;-66
2023/01/24 00:47:16;;;;;;;1.83;1.73;;;4.70;99.90;;;;;;5111796;28;20248;-63
2023/01/24 00:49:42;;;;;;;1.57;1.57;;;4.60;99.90;;;;;;5111543;28;20173;-64
2023/01/24 00:52:07;;;;;;;1.70;1.70;;;4.40;99.90;;;;;;5111368;28;20695;-65
2023/01/24 00:54:33;;;;;;;1.80;1.80;;;4.40;99.90;;;;;;5111692;28;20178;-65
2023/01/24 00:56:59;;;;;;;2.00;1.80;;;4.40;99.90;;;;;;5111515;28;20173;-74
2023/01/24 00:59:25;;;;;;;2.23;2.13;;;4.50;99.90;;;;;;5110800;28;20187;-70
2023/01/24 01:01:50;;;;;;;1.80;1.70;;;4.30;99.90;;;;;;5105551;28;20185;-70
2023/01/24 01:04:16;;;;;;;1.90;1.80;;;4.30;99.90;;;;;;5111504;28;20206;-73
2023/01/24 01:06:44;;;;;;;1.87;1.77;;;4.30;99.90;;;;;;5111618;28;20258;-72
2023/01/24 01:09:09;;;;;;;2.10;2.00;;;4.40;99.90;;;;;;5114560;28;20184;-74
2023/01/24 01:11:41;;;;;;;2.10;2.00;;;4.40;99.90;;;;;;5114439;28;20189;-66
2023/01/24 01:14:08;;;;;;;2.07;1.97;;;4.40;99.90;;;;;;5114188;28;20659;-65
2023/01/24 01:16:37;;;;;;;2.50;2.40;;;4.30;99.90;;;;;;5114790;28;20221;-64
2023/01/24 01:19:04;;;;;;;2.37;2.27;;;4.40;99.90;;;;;;5114751;28;20188;-64
2023/01/24 01:21:30;;;;;;;2.10;2.00;;;4.40;99.90;;;;;;5096231;28;20837;-71
2023/01/24 01:23:56;;;;;;;2.40;2.30;;;4.30;99.90;;;;;;5114744;28;20205;-67
2023/01/24 01:26:22;;;;;;;2.47;2.37;;;4.40;99.90;;;;;;5115033;28;20182;-66
2023/01/24 01:28:48;;;;;;;2.23;2.10;;;4.40;99.90;;;;;;5114961;28;20173;-64
2023/01/24 01:31:14;;;;;;;2.20;2.10;;;4.40;99.90;;;;;;5114643;28;20599;-65
2023/01/24 01:33:42;;;;;;;2.20;2.10;;;4.40;99.90;;;;;;5114424;28;20181;-63
2023/01/24 01:36:08;;;;;;;2.23;2.13;;;4.40;99.90;;;;;;5114727;28;20529;-67
2023/01/24 01:38:33;;;;;;;2.67;2.10;;;4.40;99.90;;;;;;5114311;28;20174;-66
2023/01/24 01:41:00;;;;;;;2.10;2.00;;;4.30;99.90;;;;;;5114632;28;20277;-65
2023/01/24 01:43:31;;;;;;;2.07;1.97;;;4.30;99.90;;;;;;5095464;28;20235;-65
2023/01/24 01:46:16;;;;;;;2.30;2.20;;;4.40;99.90;;;;;;5114427;28;20610;-64
2023/01/24 01:48:49;;;;;;;2.20;2.10;;;4.40;99.90;;;;;;5114221;28;20189;-65
2023/01/24 01:51:42;;;;;;;2.50;2.30;;;4.50;99.90;;;;;;5114524;28;20183;-66
2023/01/24 01:54:14;;;;;;;2.30;1.90;;;4.50;99.90;;;;;;5113791;28;20253;-68
2023/01/24 01:56:48;;;;;;;2.07;1.97;;;4.50;99.90;;;;;;5113840;28;20164;-64
2023/01/24 01:59:19;;;;;;;2.00;1.90;;;4.50;99.90;;;;;;5129794;27;20204;-65
2023/01/24 02:01:46;;;;;;;1.97;1.87;;;4.40;99.90;;;;;;5134572;27;20201;-64
2023/01/24 02:04:16;;;;;;;2.00;1.90;;;4.40;99.90;;;;;;5127220;27;20185;-66
2023/01/24 02:06:51;;;;;;;1.87;1.77;;;4.40;99.90;;;;;;5098838;27;20199;-71
2023/01/24 02:09:23;;;;;;;2.07;1.97;;;4.40;99.90;;;;;;5133743;27;20217;-67
2023/01/24 02:11:52;;;;;;;2.07;1.97;;;4.50;99.90;;;;;;5113938;27;20173;-68
2023/01/24 02:17:05;;;;;;;2.00;1.90;;;4.60;99.90;;;;;;5118499;28;20226;-66
2023/01/24 02:19:47;;;;;;;1.90;1.80;;;4.60;99.90;;;;;;5113821;28;20633;-65
2023/01/24 02:22:30;;;;;;;2.00;1.90;;;4.70;99.90;;;;;;5095325;28;20168;-66
2023/01/24 02:25:06;;;;;;;2.13;2.00;;;4.70;99.90;;;;;;5113702;28;20225;-64
2023/01/24 02:27:32;;;;;;;2.47;2.27;;;4.70;99.90;;;;;;5113748;28;20258;-64
2023/01/24 02:29:58;;;;;;;2.60;2.40;;;4.70;99.90;;;;;;5114064;28;20652;-65
2023/01/24 02:32:25;;;;;;;2.13;2.03;;;4.70;99.90;;;;;;5113802;28;20176;-64
2023/01/24 02:34:51;;;;;;;3.20;3.00;;;4.80;99.90;;;;;;5113905;28;20180;-63
2023/01/24 02:37:17;;;;;;;3.97;3.30;;;4.80;99.90;;;;;;5113946;28;20170;-70
2023/01/24 02:40:01;;;;;;;4.20;3.53;;;4.80;99.90;;;;;;5113581;28;20191;-73
2023/01/24 02:42:33;;;;;;;3.80;3.50;;;4.80;99.90;;;;;;5113128;28;20165;-72
2023/01/24 02:45:02;;;;;;;4.40;3.73;;;4.80;99.90;;;;;;5095070;28;20580;-71
2023/01/24 02:47:32;;;;;;;4.00;3.70;;;4.70;99.90;;;;;;5113468;28;20166;-74
2023/01/24 02:49:59;;;;;;;4.57;4.17;;;4.70;99.90;;;;;;5113033;28;20698;-73
2023/01/24 02:55:10;;;;;;;4.33;3.97;;;4.80;99.90;;;;;;5113323;28;20517;-69
2023/01/24 03:00:20;;;;;;;3.90;3.60;;;4.70;99.90;;;;;;5093107;28;20192;-68
2023/01/24 03:02:46;;;;;;;4.10;3.80;;;4.70;99.90;;;;;;5092469;28;20171;-69
2023/01/24 03:05:12;;;;;;;3.87;3.57;;;4.70;99.90;;;;;;5092623;28;20208;-65
2023/01/24 03:07:46;;;;;;;4.90;3.80;;;4.70;99.90;;;;;;5092607;28;20182;-67
2023/01/24 03:10:15;;;;;;;3.93;3.63;;;4.70;99.90;;;;;;5092620;28;20248;-65
2023/01/24 03:34:48;;;;;;;5.33;4.30;;;4.70;99.90;;;;;;5092319;28;20166;-63
2023/01/24 03:39:53;;;;;;;6.17;5.10;;;4.80;99.90;;;;;;5092353;28;20174;-65
2023/01/24 03:40:10;;;;;;;6.73;5.70;;;4.80;99.90;;;;;;5092114;28;20249;-65
2023/01/24 03:42:47;;;;;;;5.83;5.33;;;4.70;99.90;;;;;;5091406;28;20230;-63
2023/01/24 03:45:25;;;;;;;7.93;5.87;;;4.60;99.90;;;;;;5092015;28;20206;-66
2023/01/24 03:47:56;;;;;;;6.00;5.33;;;4.70;99.90;;;;;;5091816;28;20168;-66
2023/01/24 03:53:19;;;;;;;5.43;5.00;;;4.70;99.90;;;;;;5091666;28;20239;-63
2023/01/24 03:55:45;;;;;;;5.40;4.90;;;4.70;99.90;;;;;;5091797;28;20579;-64
2023/01/24 03:58:12;;;;;;;5.53;5.03;;;4.70;99.90;;;;;;5091702;28;20171;-63
2023/01/24 04:00:39;;;;;;;5.17;4.67;;;4.70;99.90;;;;;;5092044;28;20178;-66
2023/01/24 04:03:05;;;;;;;5.37;4.97;;;4.70;99.90;;;;;;5092014;28;20176;-64
2023/01/24 04:05:33;;;;;;;5.50;5.00;;;4.70;99.90;;;;;;5093868;28;20208;-65
2023/01/24 04:07:59;;;;;;;5.70;5.10;;;4.80;99.90;;;;;;5091763;28;20197;-66
2023/01/24 04:10:25;;;;;;;5.47;4.67;;;4.80;99.90;;;;;;5091895;28;20264;-65
2023/01/24 04:12:50;;;;;;;5.80;4.87;;;4.70;99.90;;;;;;5091258;28;20262;-63
2023/01/24 04:15:18;;;;;;;5.30;4.90;;;4.70;99.90;;;;;;5091905;28;20272;-64
2023/01/24 04:17:44;;;;;;;5.43;4.93;;;4.60;99.90;;;;;;5091341;28;20257;-71
2023/01/24 04:20:11;;;;;;;5.10;4.70;;;4.70;99.90;;;;;;5102021;28;20265;-73
2023/01/24 04:22:37;;;;;;;4.83;4.43;;;4.70;99.90;;;;;;5111729;28;20172;-72
2023/01/24 04:25:03;;;;;;;4.93;4.53;;;4.70;99.90;;;;;;5111946;28;20205;-69
2023/01/24 04:27:29;;;;;;;3.90;3.70;;;4.80;99.90;;;;;;5110568;28;20263;-72
2023/01/24 04:29:54;;;;;;;4.57;4.13;;;4.70;99.90;;;;;;5110749;28;20268;-73
2023/01/24 04:32:20;;;;;;;3.90;3.60;;;4.70;99.90;;;;;;5111927;28;20181;-73
2023/01/24 04:34:46;;;;;;;2.73;2.53;;;4.70;99.90;;;;;;5093702;28;20189;-73
2023/01/24 04:37:12;;;;;;;3.27;3.07;;;4.70;99.90;;;;;;5112088;28;20258;-69
2023/01/24 04:39:38;;;;;;;3.83;3.50;;;4.70;99.90;;;;;;5112033;28;20171;-70
2023/01/24 04:42:05;;;;;;;3.10;2.90;;;4.70;99.90;;;;;;5111966;28;20253;-69
2023/01/24 04:44:31;;;;;;;3.10;2.90;;;4.80;99.90;;;;;;5115502;28;20234;-68
2023/01/24 04:46:57;;;;;;;2.53;2.43;;;4.70;99.90;;;;;;5115570;28;20175;-69
2023/01/24 04:49:23;;;;;;;2.63;2.43;;;4.60;99.90;;;;;;5115690;28;20174;-66
2023/01/24 04:51:50;;;;;;;2.20;2.10;;;4.70;99.90;;;;;;5115456;28;20293;-69
2023/01/24 04:54:16;;;;;;;2.30;2.10;;;4.60;99.90;;;;;;5115648;28;20181;-70
2023/01/24 04:56:42;;;;;;;2.40;2.30;;;4.50;99.90;;;;;;5115561;28;20162;-65
2023/01/24 04:59:11;;;;;;;2.13;2.03;;;4.50;99.90;;;;;;5115341;28;20219;-69
2023/01/24 05:01:37;;;;;;;2.10;2.00;;;4.40;99.90;;;;;;5096646;28;20222;-65
2023/01/24 05:04:03;;;;;;;2.10;2.00;;;4.40;99.90;;;;;;5114658;28;20194;-67
2023/01/24 05:06:30;;;;;;;2.03;1.93;;;4.50;99.90;;;;;;5115184;28;20256;-66
2023/01/24 05:08:56;;;;;;;2.17;2.07;;;4.50;99.90;;;;;;5114871;28;20536;-67
2023/01/24 05:11:24;;;;;;;2.60;2.40;;;4.50;99.90;;;;;;5114791;28;20172;-67
2023/01/24 05:13:50;;;;;;;2.10;2.00;;;4.50;99.90;;;;;;5115330;28;20177;-64
2023/01/24 05:16:16;;;;;;;2.27;2.17;;;4.50;99.90;;;;;;5115140;28;20170;-64
2023/01/24 05:18:42;;;;;;;2.33;2.23;;;4.50;99.90;;;;;;5115204;28;20188;-66
2023/01/24 05:21:14;;;;;;;2.90;2.40;;;4.50;99.90;;;;;;5096665;28;20171;-67
2023/01/24 05:23:41;;;;;;;2.40;2.30;;;4.40;99.90;;;;;;5114957;28;20675;-66
2023/01/24 05:26:07;;;;;;;2.57;2.40;;;4.30;99.90;;;;;;5114914;28;20188;-64
2023/01/24 05:28:33;;;;;;;2.20;2.10;;;4.30;99.90;;;;;;5114732;28;20251;-66
2023/01/24 05:31:03;;;;;;;2.43;2.33;;;4.40;99.90;;;;;;5096453;28;20539;-68
2023/01/24 05:33:30;;;;;;;2.60;2.40;;;4.40;99.90;;;;;;5115024;28;20165;-68
2023/01/24 05:36:07;;;;;;;2.40;2.30;;;4.50;99.90;;;;;;5114839;28;20185;-66
2023/01/24 05:38:33;;;;;;;2.70;2.50;;;4.50;99.90;;;;;;5114755;28;20176;-65
2023/01/24 05:41:02;;;;;;;2.50;2.30;;;4.60;99.90;;;;;;5114640;28;20169;-66
2023/01/24 05:43:28;;;;;;;2.50;2.30;;;4.50;99.90;;;;;;5113954;28;20620;-65
2023/01/24 05:46:03;;;;;;;2.40;2.30;;;4.40;99.90;;;;;;5096055;28;20216;-66
2023/01/24 05:48:29;;;;;;;2.23;2.13;;;4.40;99.90;;;;;;5114614;28;20526;-67
2023/01/24 05:51:03;;;;;;;2.50;2.40;;;4.40;99.90;;;;;;5114414;28;20181;-65
2023/01/24 05:53:31;;;;;;;2.60;2.37;;;4.30;99.90;;;;;;5114041;28;20176;-68
2023/01/24 05:55:59;;;;;;;2.27;2.17;;;4.30;99.90;;;;;;5114918;28;20636;-68
2023/01/24 05:58:25;;;;;;;2.20;2.10;;;4.30;99.90;;;;;;5114846;28;20181;-71
2023/01/24 06:00:51;;;;;;;2.10;2.00;;;4.40;99.90;;;;;;5114429;28;20173;-67
2023/01/24 06:03:17;;;;;;;2.80;2.50;;;4.40;99.90;;;;;;5114237;28;20525;-66
2023/01/24 06:05:51;;;;;;;2.43;2.23;;;4.40;99.90;;;;;;5114185;28;20581;-67
2023/01/24 06:08:19;;;;;;;2.40;2.20;;;4.50;99.90;;;;;;5095778;28;20632;-69
2023/01/24 06:10:45;;;;;;;2.17;2.07;;;4.40;99.90;;;;;;5113986;28;20181;-73
2023/01/24 06:13:11;;;;;;;3.07;2.20;;;4.30;99.90;;;;;;5113805;28;20174;-72
2023/01/24 06:15:37;;;;;;;5.17;2.93;;;4.30;99.90;;;;;;5114055;28;20173;-74
2023/01/24 06:18:04;;;;;;;4.17;2.50;;;4.40;99.90;;;;;;5113885;28;20643;-74
2023/01/24 06:20:31;;;;;;;3.63;3.00;;;4.30;99.90;;;;;;5113858;28;20173;-68
2023/01/24 06:23:03;;;;;;;3.73;2.93;;;4.40;99.90;;;;;;5095276;28;20283;-68
2023/01/24 06:25:29;;;;;;;3.13;2.83;;;4.40;99.90;;;;;;5095129;28;20213;-69
2023/01/24 06:27:55;;;;;;;2.80;2.60;;;4.50;99.90;;;;;;5113746;28;20223;-69
2023/01/24 06:30:21;;;;;;;2.57;2.43;;;4.50;99.90;;;;;;5113494;28;20213;-72
2023/01/24 06:33:17;;;;;;;3.23;2.43;;;4.60;99.90;;;;;;5113534;28;20169;-68
2023/01/24 06:36:10;;;;;;;2.70;2.50;;;4.60;99.90;;;;;;5113730;28;20179;-66
2023/01/24 06:38:36;;;;;;;3.57;2.90;;;4.70;99.90;;;;;;5114709;28;20166;-70
2023/01/24 06:41:02;;;;;;;3.27;2.97;;;4.70;99.90;;;;;;5113970;28;20177;-67
2023/01/24 06:43:28;;;;;;;3.10;2.80;;;4.70;99.90;;;;;;5094887;28;20229;-65
2023/01/24 06:45:55;;;;;;;4.67;3.13;;;4.80;99.90;;;;;;5113063;28;20211;-69
2023/01/24 06:48:21;;;;;;;3.20;3.00;;;4.80;99.90;;;;;;5113492;28;20260;-65
2023/01/24 06:50:50;;;;;;;3.50;3.30;;;4.80;99.90;;;;;;5113368;28;20662;-67
2023/01/24 06:53:15;;;;;;;3.53;3.23;;;4.80;99.90;;;;;;5095165;28;20207;-66
2023/01/24 06:55:45;;;;;;;3.47;3.20;;;4.80;99.90;;;;;;5113217;28;20586;-66
2023/01/24 06:58:11;;;;;;;3.40;3.20;;;4.80;99.90;;;;;;5113449;28;20584;-64
2023/01/24 07:00:37;;;;;;;3.50;3.30;;;4.90;99.90;;;;;;5113282;28;20208;-68
2023/01/24 07:03:07;;;;;;;3.57;3.37;;;4.80;99.90;;;;;;5113051;28;20250;-68
2023/01/24 07:05:35;;;;;;;3.53;3.23;;;4.90;99.90;;;;;;5111901;28;20240;-65
2023/01/24 07:08:01;;;;;;;4.27;3.67;;;4.90;99.90;;;;;;5112979;28;20245;-69
2023/01/24 07:10:28;;;;;;;3.60;3.40;;;4.90;99.90;;;;;;5112940;28;20261;-68
2023/01/24 07:12:54;;;;;;;3.57;3.33;;;4.90;99.90;;;;;;5112869;28;20184;-72
2023/01/24 07:15:20;;;;;;;3.73;3.50;;;5.00;99.90;;;;;;5112762;28;20198;-65
2023/01/24 07:17:46;;;;;;;3.47;3.23;;;5.00;99.90;;;;;;5112850;28;20200;-65
2023/01/24 07:20:13;;;;;;;3.07;2.77;;;5.00;99.90;;;;;;5113094;28;20260;-65
2023/01/24 07:22:39;;;;;;;3.37;3.13;;;5.00;99.90;;;;;;5112736;28;20181;-66
2023/01/24 07:25:14;;;;;;;3.33;3.13;;;4.90;99.90;;;;;;5112644;28;20682;-65
2023/01/24 07:27:43;;;;;;;3.20;3.00;;;4.90;99.90;;;;;;5112999;28;20530;-65
2023/01/24 07:30:11;;;;;;;4.10;3.40;;;4.80;99.90;;;;;;5112825;28;20257;-64
2023/01/24 07:32:38;;;;;;;5.60;4.97;;;4.70;99.90;;;;;;5112441;28;20182;-65
2023/01/24 07:35:05;;;;;;;3.40;3.10;;;4.70;99.90;;;;;;5112651;28;20253;-65
2023/01/24 07:37:30;;;;;;;3.50;3.20;;;4.70;99.90;;;;;;5112554;28;20223;-70
2023/01/24 07:39:56;;;;;;;4.07;2.97;;;4.70;99.90;;;;;;5113466;28;20186;-65
2023/01/24 07:42:22;;;;;;;3.57;3.30;;;4.60;99.90;;;;;;5113681;28;20257;-67
2023/01/24 07:44:48;;;;;;;3.50;3.20;;;4.70;99.90;;;;;;5114517;28;20198;-65
2023/01/24 07:47:13;;;;;;;4.07;3.40;;;4.70;99.90;;;;;;5113238;28;20178;-65
2023/01/24 07:49:39;;;;;;;3.50;3.20;;;4.60;99.90;;;;;;5112007;28;20180;-65
2023/01/24 07:52:05;;;;;;;3.40;3.10;;;4.70;99.90;;;;;;5111916;28;20205;-64
2023/01/24 07:54:31;;;;;;;3.60;3.10;;;4.70;99.90;;;;;;5112334;28;20174;-65
2023/01/24 07:56:57;;;;;;;3.60;3.30;;;4.60;99.90;;;;;;5112321;28;20165;-66
2023/01/24 07:59:22;;;;;;;3.50;3.30;;;4.70;99.90;;;;;;5112435;28;20206;-71
2023/01/24 08:01:48;;;;;;;3.83;3.53;;;4.70;99.90;;;;;;5112460;28;20169;-68
2023/01/24 08:04:14;;;;;;;4.23;3.87;;;4.80;99.90;;;;;;5112111;28;20205;-64
2023/01/24 08:07:16;;;;;;;4.53;4.20;;;4.80;99.90;;;;;;5112335;28;20716;-73
2023/01/24 08:09:29;;;;;;;4.87;4.00;;;4.80;99.90;;;;;;5111929;28;20181;-70
2023/01/24 08:11:55;;;;;;;4.63;3.80;;;4.90;99.90;;;;;;5112098;28;20184;-72
2023/01/24 08:14:21;;;;;;;3.63;3.37;;;4.90;99.90;;;;;;5112181;28;20254;-73
2023/01/24 08:16:51;;;;;;;3.57;3.33;;;4.90;99.90;;;;;;5113595;28;20253;-67
2023/01/24 08:19:17;;;;;;;4.50;4.10;;;4.90;99.90;;;;;;5116225;28;20261;-73
2023/01/24 08:21:42;;;;;;;4.17;3.73;;;5.00;99.90;;;;;;5116397;28;20269;-74
2023/01/24 08:24:08;;;;;;;4.10;3.80;;;4.80;99.90;;;;;;5116045;28;20656;-71
2023/01/24 08:26:34;;;;;;;4.80;4.37;;;4.80;99.90;;;;;;5116080;28;20168;-70
2023/01/24 08:29:00;;;;;;;4.40;4.00;;;4.90;99.90;;;;;;5115966;28;20212;-72
2023/01/24 08:31:26;;;;;;;4.47;4.07;;;5.00;99.90;;;;;;5116009;28;20202;-75
2023/01/24 08:33:51;;;;;;;7.07;4.00;;;5.00;99.90;;;;;;5115509;28;20203;-73
2023/01/24 08:36:22;;;;;;;4.60;4.20;;;5.10;99.90;;;;;;5115762;28;20174;-68
2023/01/24 08:38:47;;;;;;;3.80;3.50;;;5.10;99.90;;;;;;5116027;28;20215;-65
2023/01/24 08:41:13;;;;;;;3.27;3.07;;;5.10;99.90;;;;;;5097477;28;20585;-72
2023/01/24 08:43:39;;;;;;;3.60;3.30;;;5.00;99.90;;;;;;5115345;28;20227;-70
2023/01/24 08:46:04;;;;;;;3.17;2.97;;;5.00;99.90;;;;;;5115868;28;20210;-69
2023/01/24 08:48:30;;;;;;;3.20;2.93;;;5.00;99.90;;;;;;5115945;28;20570;-65
2023/01/24 08:50:56;;;;;;;4.17;3.13;;;5.00;99.90;;;;;;5097802;28;20629;-70
2023/01/24 08:53:22;;;;;;;3.50;3.20;;;5.10;99.90;;;;;;5115588;28;20505;-65
2023/01/24 08:55:49;;;;;;;3.43;3.13;;;5.10;99.90;;;;;;5115541;28;20269;-65
2023/01/24 08:58:15;;;;;;;3.10;2.90;;;5.10;99.90;;;;;;5116018;28;20177;-66
2023/01/24 09:00:41;;;;;;;3.10;2.90;;;5.10;99.90;;;;;;5115441;28;20199;-66
2023/01/24 09:03:08;;;;;;;3.53;3.23;;;5.20;99.90;;;;;;5115167;28;20169;-68
2023/01/24 09:05:34;;;;;;;2.70;2.47;;;5.30;99.90;;;;;;5096999;28;20211;-72
2023/01/24 09:08:00;;;;;;;3.00;2.80;;;5.30;99.90;;;;;;5115381;28;20173;-72
2023/01/24 09:10:26;;;;;;;3.67;3.00;;;5.30;99.90;;;;;;5096934;28;20645;-72
2023/01/24 09:12:52;;;;;;;3.37;3.07;;;5.30;99.90;;;;;;5114780;28;20549;-71
2023/01/24 09:15:18;;;;;;;3.20;2.90;;;5.20;99.90;;;;;;5114667;28;20652;-70
2023/01/24 09:17:44;;;;;;;2.80;2.67;;;5.20;99.90;;;;;;5115166;28;20170;-72
2023/01/24 09:20:10;;;;;;;2.90;2.63;;;5.10;99.90;;;;;;5115172;28;20261;-73
2023/01/24 09:22:36;;;;;;;3.97;2.40;;;5.00;99.90;;;;;;5115087;28;20175;-71
2023/01/24 09:25:03;;;;;;;2.80;2.60;;;5.00;99.90;;;;;;5115018;28;20246;-70
2023/01/24 09:27:29;;;;;;;3.37;3.00;;;5.00;99.90;;;;;;5115016;28;20249;-71
2023/01/24 09:29:55;;;;;;;2.73;2.53;;;5.00;99.90;;;;;;5114334;28;20516;-72
2023/01/24 09:32:21;;;;;;;3.37;3.17;;;4.90;99.90;;;;;;5115213;28;20164;-71
2023/01/24 09:34:47;;;;;;;5.23;3.00;;;4.90;99.90;;;;;;5114910;28;20719;-72
2023/01/24 09:37:18;;;;;;;3.37;2.80;;;5.00;99.90;;;;;;5114841;28;20174;-71
2023/01/24 09:39:44;;;;;;;2.57;2.47;;;5.00;99.90;;;;;;5114825;28;20185;-72
2023/01/24 09:42:34;;;;;;;3.30;3.10;;;5.00;99.90;;;;;;5096074;28;20613;-73
2023/01/24 09:45:11;;;;;;;2.93;2.73;;;5.00;99.90;;;;;;5114711;28;20208;-71
2023/01/24 09:48:01;;;;;;;2.70;2.50;;;5.10;99.90;;;;;;5114640;28;20158;-72
2023/01/24 09:50:40;;;;;;;2.83;2.67;;;5.10;99.90;;;;;;5114325;28;20218;-72
2023/01/24 09:53:15;;;;;;;3.50;3.20;;;5.00;99.90;;;;;;5114164;28;20184;-71
2023/01/24 09:55:42;;;;;;;3.37;3.17;;;5.10;99.90;;;;;;5114492;28;20243;-72
2023/01/24 09:58:31;;;;;;;2.60;2.40;;;5.10;99.90;;;;;;5114396;28;20185;-71
2023/01/24 10:01:08;;;;;;;3.10;2.80;;;5.10;99.90;;;;;;5114380;28;20640;-71
2023/01/24 10:03:36;;;;;;;2.90;2.70;;;5.10;99.90;;;;;;5114281;28;20161;-71
2023/01/24 10:06:24;;;;;;;3.00;2.73;;;5.10;99.90;;;;;;5114217;28;20297;-72
2023/01/24 10:09:14;;;;;;;3.40;3.20;;;5.10;99.90;;;;;;5114275;28;20170;-71
2023/01/24 10:11:57;;;;;;;3.70;3.40;;;5.10;99.90;;;;;;5113737;28;20162;-72
2023/01/24 10:14:31;;;;;;;3.53;3.23;;;5.10;99.90;;;;;;5113923;28;20629;-72
2023/01/24 10:17:06;;;;;;;5.07;2.63;;;5.10;99.90;;;;;;5114086;28;20171;-72
2023/01/24 10:19:47;;;;;;;3.57;3.23;;;5.10;99.90;;;;;;5113937;28;20173;-72
2023/01/24 10:22:40;;;;;;;4.27;3.90;;;5.10;99.90;;;;;;5113877;28;20162;-72
2023/01/24 10:25:27;;;;;;;3.40;3.17;;;5.20;99.90;;;;;;5113767;28;20205;-72
2023/01/24 10:27:57;;;;;;;3.83;3.20;;;5.30;99.90;;;;;;5095295;28;20276;-72
2023/01/24 10:30:48;;;;;;;3.10;2.90;;;5.30;99.90;;;;;;5095384;28;20249;-72
2023/01/24 10:33:16;;;;;;;2.73;2.60;;;5.30;99.90;;;;;;5099495;28;20182;-72
2023/01/24 10:36:06;;;;;;;3.00;2.80;;;5.20;99.90;;;;;;5113752;28;20166;-72
2023/01/24 10:38:33;;;;;;;3.00;2.80;;;5.30;99.90;;;;;;5113767;28;20166;-73
2023/01/24 10:41:21;;;;;;;3.63;3.07;;;5.30;99.90;;;;;;5114414;28;20552;-73
2023/01/24 10:43:58;;;;;;;3.50;3.20;;;5.30;99.90;;;;;;5097186;28;20261;-73
2023/01/24 10:46:43;;;;;;;3.07;2.87;;;5.30;99.90;;;;;;5095093;28;20177;-72
2023/01/24 10:49:27;;;;;;;3.23;2.93;;;5.40;99.90;;;;;;5113272;28;20256;-71
2023/01/24 10:52:13;;;;;;;3.50;3.20;;;5.40;99.90;;;;;;5113327;28;20162;-72
2023/01/24 10:54:53;;;;;;;3.03;2.80;;;5.40;99.90;;;;;;5113493;28;20170;-71
2023/01/24 10:57:40;;;;;;;3.53;2.37;;;5.50;99.90;;;;;;5113146;28;20174;-71
2023/01/24 11:00:45;;;;;;;2.70;2.50;;;5.50;99.90;;;;;;5094471;28;20184;-72
2023/01/24 11:03:23;;;;;;;3.00;2.70;;;5.60;99.90;;;;;;5108805;28;20189;-71
2023/01/24 11:05:51;;;;;;;5.73;2.70;;;5.60;99.90;;;;;;5112975;28;20533;-72
2023/01/24 11:08:24;;;;;;;2.93;2.73;;;5.50;99.90;;;;;;5094585;28;20181;-71
2023/01/24 11:10:58;;;;;;;3.40;3.17;;;5.60;99.90;;;;;;5113016;28;20529;-72
2023/01/24 11:13:27;;;;;;;2.77;2.67;;;5.50;99.90;;;;;;5112944;28;20208;-73
2023/01/24 11:16:00;;;;;;;3.30;3.00;;;5.50;99.90;;;;;;5112891;28;20534;-71
2023/01/24 11:18:28;;;;;;;2.83;2.63;;;5.60;99.90;;;;;;5112764;28;20219;-71
2023/01/24 11:21:15;;;;;;;2.90;2.70;;;5.70;99.90;;;;;;5112880;28;20256;-72
2023/01/24 11:23:42;;;;;;;2.90;2.70;;;5.80;99.90;;;;;;5112901;28;20165;-71
2023/01/24 11:26:29;;;;;;;2.87;2.67;;;5.70;99.90;;;;;;5113050;28;20211;-71
2023/01/24 11:29:05;;;;;;;2.70;2.50;;;5.60;99.90;;;;;;5113113;28;20211;-72
2023/01/24 11:31:51;;;;;;;2.90;2.70;;;5.70;99.90;;;;;;5112598;28;20176;-71
2023/01/24 11:34:36;;;;;;;3.40;3.10;;;5.70;99.90;;;;;;5112606;28;20195;-71
2023/01/24 11:37:22;;;;;;;2.83;2.63;;;5.70;99.90;;;;;;5112506;28;20195;-72
2023/01/24 11:40:02;;;;;;;4.97;2.93;;;5.70;99.90;;;;;;5112669;28;20205;-72
2023/01/24 11:43:02;;;;;;;4.57;3.23;;;5.90;99.90;;;;;;5111254;28;20170;-72
2023/01/24 11:45:49;;;;;;;4.50;3.43;;;5.90;99.90;;;;;;5094290;28;20638;-72
2023/01/24 11:48:25;;;;;;;4.20;3.70;;;6.00;99.90;;;;;;5111869;28;20177;-72
2023/01/24 11:51:09;;;;;;;6.50;3.67;;;6.00;99.90;;;;;;5112144;28;20232;-72
2023/01/24 11:53:47;;;;;;;3.37;3.10;;;6.00;99.90;;;;;;5112129;28;20657;-72
2023/01/24 11:56:20;;;;;;;3.87;3.47;;;6.00;99.90;;;;;;5112432;28;20160;-71
2023/01/24 11:59:04;;;;;;;3.63;3.33;;;6.00;99.90;;;;;;5112249;28;20169;-71
2023/01/24 12:01:51;;;;;;;4.27;3.87;;;6.00;99.90;;;;;;5112392;28;20176;-72
2023/01/24 12:04:45;;;;;;;4.07;3.60;;;6.00;99.90;;;;;;5112299;28;20207;-72
2023/01/24 12:07:19;;;;;;;4.30;3.90;;;6.10;99.90;;;;;;5072845;28;20239;-72
2023/01/24 12:10:09;;;;;;;4.90;4.40;;;6.20;99.90;;;;;;5112234;28;20701;-74
2023/01/24 12:12:39;;;;;;;5.33;4.83;;;6.30;99.90;;;;;;5111926;28;20159;-72
2023/01/24 12:15:18;;;;;;;5.83;4.80;;;6.30;99.90;;;;;;5112332;28;20171;-72
2023/01/24 12:18:01;;;;;;;6.33;5.03;;;6.40;99.90;;;;;;5112228;28;20160;-71
2023/01/24 12:21:04;;;;;;;5.67;5.13;;;6.50;99.90;;;;;;5112162;28;20159;-73
2023/01/24 12:23:51;;;;;;;5.37;4.87;;;6.60;99.90;;;;;;5111967;28;20177;-72
2023/01/24 12:26:26;;;;;;;5.07;4.57;;;6.70;99.90;;;;;;5112143;28;20178;-71
2023/01/24 12:29:16;;;;;;;5.40;4.90;;;6.70;99.90;;;;;;5112150;28;20201;-71
2023/01/24 12:31:59;;;;;;;5.20;4.70;;;6.70;99.90;;;;;;5112399;28;20162;-72
2023/01/24 12:34:37;;;;;;;4.40;4.10;;;6.80;99.90;;;;;;5112149;28;20166;-71
2023/01/24 12:37:06;;;;;;;4.77;4.37;;;6.80;99.90;;;;;;5112330;28;20159;-70
2023/01/24 12:39:50;;;;;;;4.33;3.93;;;6.80;99.90;;;;;;5112815;28;20252;-72
2023/01/24 12:42:22;;;;;;;4.27;3.97;;;6.70;99.90;;;;;;5112196;28;20159;-72
2023/01/24 12:44:59;;;;;;;4.27;3.90;;;6.80;99.90;;;;;;5093965;28;20567;-71
2023/01/24 12:48:04;;;;;;;5.20;4.27;;;6.90;99.90;;;;;;5112222;28;20960;-71
2023/01/24 12:50:56;;;;;;;3.53;3.30;;;6.90;99.90;;;;;;5112065;28;20497;-72
2023/01/24 12:53:54;;;;;;;3.87;3.67;;;6.80;99.90;;;;;;5111816;28;20159;-71
2023/01/24 12:56:36;;;;;;;4.13;3.50;;;6.80;99.90;;;;;;5111215;28;20196;-70
2023/01/24 12:59:02;;;;;;;4.40;4.10;;;6.80;99.90;;;;;;5111818;28;20478;-71
2023/01/24 13:01:37;;;;;;;4.50;4.20;;;6.70;99.90;;;;;;5111745;28;20278;-72
2023/01/24 13:04:17;;;;;;;4.33;4.03;;;6.70;99.90;;;;;;5113276;28;20167;-72
2023/01/24 13:07:08;;;;;;;5.27;3.90;;;6.80;99.90;;;;;;5115274;28;20169;-72
2023/01/24 13:09:39;;;;;;;4.60;4.20;;;6.70;99.90;;;;;;5115485;28;20196;-71
2023/01/24 13:12:21;;;;;;;6.20;4.47;;;6.70;99.90;;;;;;5115209;28;20190;-72
2023/01/24 13:14:56;;;;;;;4.93;4.53;;;6.70;99.90;;;;;;5115673;28;20171;-73
2023/01/24 13:17:27;;;;;;;12.60;4.73;;;6.60;99.90;;;;;;5115302;28;20166;-72
2023/01/24 13:20:20;;;;;;;4.97;4.53;;;6.60;99.90;;;;;;5115181;28;20622;-72
2023/01/24 13:23:24;;;;;;;4.73;4.33;;;6.70;99.90;;;;;;5096664;28;20255;-72
2023/01/24 13:26:19;;;;;;;5.50;4.43;;;6.70;99.90;;;;;;5115098;28;20382;-73
2023/01/24 13:29:03;;;;;;;5.13;4.60;;;6.70;99.90;;;;;;5115015;28;20167;-71
2023/01/24 13:31:35;;;;;;;6.90;4.60;;;6.70;99.90;;;;;;5114934;28;20164;-72
2023/01/24 13:34:12;;;;;;;6.30;5.33;;;6.70;99.90;;;;;;5134523;27;20665;-72
2023/01/24 13:36:39;;;;;;;6.23;5.63;;;6.60;99.90;;;;;;5135450;27;20162;-72
2023/01/24 13:39:06;;;;;;;6.63;5.77;;;6.60;99.90;;;;;;5135685;27;20169;-72
2023/01/24 13:41:35;;;;;;;7.93;6.10;;;6.70;99.90;;;;;;5135510;27;20176;-71
2023/01/24 13:44:07;;;;;;;6.27;5.67;;;6.70;99.90;;;;;;5134872;27;20239;-72
2023/01/24 13:46:44;;;;;;;6.17;5.60;;;6.60;99.90;;;;;;5135282;27;20279;-72
2023/01/24 13:49:17;;;;;;;6.07;5.47;;;6.70;99.90;;;;;;5134729;27;20165;-71
2023/01/24 13:51:48;;;;;;;6.90;6.20;;;6.70;99.90;;;;;;5134306;27;20518;-71
2023/01/24 13:54:33;;;;;;;7.00;6.13;;;6.80;99.90;;;;;;5134943;27;20168;-73